Norwood, MA

1:42 PM EST on December 25, 2014 (GMT -0500)
Walpole Heights | Change Station
CLOSE
Current Station
Personal Weather Station
Location: Walpole, MA
Elevation: 308 ft
Nearby Weather Stations

Elev 308 ft 42.14 °N, 71.23 °W | Updated 1 second ago

Partly Cloudy
Partly Cloudy
50.6 °F
Feels Like 50.6 °F
N
9.2
Wind Variable Wind from West
Gusts 9.2 mph

Today
High -- | Low -- °F
--% Chance of Precip.
Yesterday
High -- | Low -- °F
Precip. -- in
7:11 AM 4:18 PM
Waxing Crescent, 18% visible
Pressure 29.60 in
Visibility 10.0 miles
Clouds Few 4200 ft
Dew Point 36 °F
Humidity 58%
Rainfall 0.18 in
Snow Depth Not available.
UV 2 out of 12
Pollen .10 out of 12
Air Quality Not available.
Flu Activity Not available.
METAR KOWD 251753Z 29015G20KT 10SM FEW042 13/02 A2959 RMK AO2 SLP021 60009 T01280017 10156 20111 51023

More Conditions Fewer Conditions

Pressure 29.60 in
Visibility 10.0 miles
Clouds Few 4200 ft
Dew Point 36 °F
Humidity 58%
Rainfall 0.18 in
Snow Depth Not available.
UV 2 out of 12
Pollen .10 out of 12
Air Quality Not available.
Flu Activity Not available.
METAR KOWD 251753Z 29015G20KT 10SM FEW042 13/02 A2959 RMK AO2 SLP021 60009 T01280017 10156 20111 51023

More Conditions Fewer Conditions

10-Day Weather Forecast

Almanac

Astronomy

Dec. 25, 2014 Rise Set
Actual Time
Civil Twilight
Nautical Twilight
Astronomical Twilight
Moon
Length of Visible Light
Length of Day
Tomorrow will be .
, % of the Moon is Illuminated

Today's Extremes

State Highs State Lows

Community

WunderPhotos

Upload Photos

1,780,358 photos uploaded!

WunderBlogs® & News

Nearby

Air Quality

  Air Quality AQ Index Pollutant
Not available.

Snow Depth

Station Depth Elevation

Earthquake Activity

City Distance Mag. Time & Date
Minimum magnitude displayed is 2.5.

Coastal Water Temperatures

Place Temperature

Nearby Weather Stations